sensor_id;sensor_type;location;lat;lon;timestamp;P1;durP1;ratioP1;P2;durP2;ratioP2
2710;SDS011;20721;47.402;8.550;2023-06-24T00:00:37;5.83;;;5.83;;
2710;SDS011;20721;47.402;8.550;2023-06-24T00:02:37;6.60;;;6.60;;
2710;SDS011;20721;47.402;8.550;2023-06-24T00:03:37;6.27;;;6.27;;
2710;SDS011;20721;47.402;8.550;2023-06-24T00:04:37;6.11;;;6.11;;
2710;SDS011;20721;47.402;8.550;2023-06-24T00:05:37;6.26;;;6.26;;
2710;SDS011;20721;47.402;8.550;2023-06-24T00:06:37;6.20;;;6.20;;
2710;SDS011;20721;47.402;8.550;2023-06-24T00:07:37;6.34;;;6.34;;
2710;SDS011;20721;47.402;8.550;2023-06-24T00:08:44;6.14;;;6.14;;
2710;SDS011;20721;47.402;8.550;2023-06-24T00:09:38;6.50;;;6.50;;
2710;SDS011;20721;47.402;8.550;2023-06-24T00:10:37;6.10;;;6.10;;
2710;SDS011;20721;47.402;8.550;2023-06-24T00:11:38;6.16;;;6.16;;
2710;SDS011;20721;47.402;8.550;2023-06-24T00:13:39;6.10;;;6.10;;
2710;SDS011;20721;47.402;8.550;2023-06-24T00:14:37;6.46;;;6.46;;
2710;SDS011;20721;47.402;8.550;2023-06-24T00:15:37;6.34;;;6.34;;
2710;SDS011;20721;47.402;8.550;2023-06-24T00:16:37;6.18;;;6.18;;
2710;SDS011;20721;47.402;8.550;2023-06-24T00:17:38;6.46;;;6.46;;
2710;SDS011;20721;47.402;8.550;2023-06-24T00:19:37;6.91;;;6.91;;
2710;SDS011;20721;47.402;8.550;2023-06-24T00:20:37;6.84;;;6.84;;
2710;SDS011;20721;47.402;8.550;2023-06-24T00:21:40;6.94;;;6.94;;
2710;SDS011;20721;47.402;8.550;2023-06-24T00:22:38;6.42;;;6.42;;
2710;SDS011;20721;47.402;8.550;2023-06-24T00:23:38;6.60;;;6.60;;
2710;SDS011;20721;47.402;8.550;2023-06-24T00:24:38;6.63;;;6.63;;
2710;SDS011;20721;47.402;8.550;2023-06-24T00:25:37;7.07;;;7.07;;
2710;SDS011;20721;47.402;8.550;2023-06-24T00:26:37;6.39;;;6.39;;
2710;SDS011;20721;47.402;8.550;2023-06-24T00:27:37;6.73;;;6.73;;
2710;SDS011;20721;47.402;8.550;2023-06-24T00:30:37;6.86;;;6.86;;
2710;SDS011;20721;47.402;8.550;2023-06-24T00:31:37;6.15;;;6.15;;
2710;SDS011;20721;47.402;8.550;2023-06-24T00:32:37;6.71;;;6.71;;
2710;SDS011;20721;47.402;8.550;2023-06-24T00:34:37;6.95;;;6.95;;
2710;SDS011;20721;47.402;8.550;2023-06-24T00:35:37;7.38;;;7.38;;
2710;SDS011;20721;47.402;8.550;2023-06-24T00:36:37;7.90;;;7.90;;
2710;SDS011;20721;47.402;8.550;2023-06-24T00:37:37;6.65;;;6.65;;
2710;SDS011;20721;47.402;8.550;2023-06-24T00:40:37;7.05;;;7.05;;
2710;SDS011;20721;47.402;8.550;2023-06-24T00:42:37;6.89;;;6.89;;
2710;SDS011;20721;47.402;8.550;2023-06-24T00:43:37;6.44;;;6.44;;
2710;SDS011;20721;47.402;8.550;2023-06-24T00:44:37;7.08;;;7.08;;
2710;SDS011;20721;47.402;8.550;2023-06-24T00:45:37;7.31;;;7.31;;
2710;SDS011;20721;47.402;8.550;2023-06-24T00:46:37;6.86;;;6.86;;
2710;SDS011;20721;47.402;8.550;2023-06-24T00:48:37;7.27;;;7.27;;
2710;SDS011;20721;47.402;8.550;2023-06-24T00:49:37;7.35;;;7.35;;
2710;SDS011;20721;47.402;8.550;2023-06-24T00:50:37;7.31;;;7.31;;
2710;SDS011;20721;47.402;8.550;2023-06-24T00:51:40;7.14;;;7.14;;
2710;SDS011;20721;47.402;8.550;2023-06-24T00:53:37;6.84;;;6.84;;
2710;SDS011;20721;47.402;8.550;2023-06-24T00:54:41;7.18;;;7.18;;
2710;SDS011;20721;47.402;8.550;2023-06-24T00:55:39;7.32;;;7.32;;
2710;SDS011;20721;47.402;8.550;2023-06-24T00:56:41;7.25;;;7.25;;
2710;SDS011;20721;47.402;8.550;2023-06-24T00:57:39;7.33;;;7.33;;
2710;SDS011;20721;47.402;8.550;2023-06-24T01:00:37;7.53;;;7.53;;
2710;SDS011;20721;47.402;8.550;2023-06-24T01:01:39;7.42;;;7.42;;
2710;SDS011;20721;47.402;8.550;2023-06-24T01:02:37;8.04;;;8.04;;
2710;SDS011;20721;47.402;8.550;2023-06-24T01:04:38;7.68;;;7.68;;
2710;SDS011;20721;47.402;8.550;2023-06-24T01:05:38;7.03;;;7.03;;
2710;SDS011;20721;47.402;8.550;2023-06-24T01:07:41;7.41;;;7.41;;
2710;SDS011;20721;47.402;8.550;2023-06-24T01:08:38;7.19;;;7.19;;
2710;SDS011;20721;47.402;8.550;2023-06-24T01:09:38;7.38;;;7.38;;
2710;SDS011;20721;47.402;8.550;2023-06-24T01:10:37;8.00;;;8.00;;
2710;SDS011;20721;47.402;8.550;2023-06-24T01:11:38;7.74;;;7.74;;
2710;SDS011;20721;47.402;8.550;2023-06-24T01:12:39;7.28;;;7.28;;
2710;SDS011;20721;47.402;8.550;2023-06-24T01:13:37;7.96;;;7.96;;
2710;SDS011;20721;47.402;8.550;2023-06-24T01:14:37;7.21;;;7.21;;
2710;SDS011;20721;47.402;8.550;2023-06-24T01:15:38;6.67;;;6.67;;
2710;SDS011;20721;47.402;8.550;2023-06-24T01:16:42;7.28;;;7.28;;
2710;SDS011;20721;47.402;8.550;2023-06-24T01:18:46;7.21;;;7.21;;
2710;SDS011;20721;47.402;8.550;2023-06-24T01:20:04;7.85;;;7.85;;
2710;SDS011;20721;47.402;8.550;2023-06-24T01:21:53;7.19;;;7.19;;
2710;SDS011;20721;47.402;8.550;2023-06-24T01:22:58;7.95;;;7.95;;
2710;SDS011;20721;47.402;8.550;2023-06-24T01:24:08;7.92;;;7.92;;
2710;SDS011;20721;47.402;8.550;2023-06-24T01:29:08;7.70;;;7.70;;
2710;SDS011;20721;47.402;8.550;2023-06-24T01:32:50;7.75;;;7.75;;
2710;SDS011;20721;47.402;8.550;2023-06-24T01:33:50;7.79;;;7.79;;
2710;SDS011;20721;47.402;8.550;2023-06-24T01:34:39;8.25;;;8.25;;
2710;SDS011;20721;47.402;8.550;2023-06-24T01:35:39;6.97;;;6.97;;
2710;SDS011;20721;47.402;8.550;2023-06-24T01:37:42;7.70;;;7.70;;
2710;SDS011;20721;47.402;8.550;2023-06-24T01:38:46;6.82;;;6.82;;
2710;SDS011;20721;47.402;8.550;2023-06-24T01:40:41;7.63;;;7.63;;
2710;SDS011;20721;47.402;8.550;2023-06-24T01:42:39;7.58;;;7.58;;
2710;SDS011;20721;47.402;8.550;2023-06-24T01:44:37;7.88;;;7.88;;
2710;SDS011;20721;47.402;8.550;2023-06-24T01:45:42;8.20;;;8.20;;
2710;SDS011;20721;47.402;8.550;2023-06-24T01:46:39;7.50;;;7.50;;
2710;SDS011;20721;47.402;8.550;2023-06-24T01:47:39;7.02;;;7.02;;
2710;SDS011;20721;47.402;8.550;2023-06-24T01:48:38;7.78;;;7.78;;
2710;SDS011;20721;47.402;8.550;2023-06-24T01:49:39;8.31;;;8.20;;
2710;SDS011;20721;47.402;8.550;2023-06-24T01:50:44;7.51;;;7.51;;
2710;SDS011;20721;47.402;8.550;2023-06-24T01:51:40;7.02;;;7.02;;
2710;SDS011;20721;47.402;8.550;2023-06-24T01:54:39;8.19;;;8.19;;
2710;SDS011;20721;47.402;8.550;2023-06-24T01:56:38;7.58;;;7.58;;
2710;SDS011;20721;47.402;8.550;2023-06-24T01:57:39;7.69;;;7.69;;
2710;SDS011;20721;47.402;8.550;2023-06-24T01:58:38;8.37;;;8.37;;
2710;SDS011;20721;47.402;8.550;2023-06-24T02:00:38;8.10;;;8.10;;
2710;SDS011;20721;47.402;8.550;2023-06-24T02:01:38;8.36;;;8.36;;
2710;SDS011;20721;47.402;8.550;2023-06-24T02:02:38;8.25;;;8.25;;
2710;SDS011;20721;47.402;8.550;2023-06-24T02:03:38;8.67;;;8.67;;
2710;SDS011;20721;47.402;8.550;2023-06-24T02:05:37;8.93;;;8.93;;
2710;SDS011;20721;47.402;8.550;2023-06-24T02:06:39;8.43;;;8.43;;
2710;SDS011;20721;47.402;8.550;2023-06-24T02:07:40;8.17;;;8.17;;
2710;SDS011;20721;47.402;8.550;2023-06-24T02:08:43;7.79;;;7.79;;
2710;SDS011;20721;47.402;8.550;2023-06-24T02:10:38;8.00;;;8.00;;
2710;SDS011;20721;47.402;8.550;2023-06-24T02:12:38;7.80;;;7.80;;
2710;SDS011;20721;47.402;8.550;2023-06-24T02:13:39;7.93;;;7.93;;
2710;SDS011;20721;47.402;8.550;2023-06-24T02:15:39;8.88;;;8.88;;
2710;SDS011;20721;47.402;8.550;2023-06-24T02:16:37;8.17;;;8.17;;
2710;SDS011;20721;47.402;8.550;2023-06-24T02:17:39;7.93;;;7.93;;
2710;SDS011;20721;47.402;8.550;2023-06-24T02:18:38;8.74;;;8.74;;
2710;SDS011;20721;47.402;8.550;2023-06-24T02:19:39;7.59;;;7.59;;
2710;SDS011;20721;47.402;8.550;2023-06-24T02:20:39;7.82;;;7.82;;
2710;SDS011;20721;47.402;8.550;2023-06-24T02:21:39;9.03;;;9.03;;
2710;SDS011;20721;47.402;8.550;2023-06-24T02:23:38;8.65;;;8.65;;
2710;SDS011;20721;47.402;8.550;2023-06-24T02:26:37;8.35;;;8.35;;
2710;SDS011;20721;47.402;8.550;2023-06-24T02:27:38;8.43;;;8.43;;
2710;SDS011;20721;47.402;8.550;2023-06-24T02:28:38;8.05;;;8.05;;
2710;SDS011;20721;47.402;8.550;2023-06-24T02:29:39;7.62;;;7.62;;
2710;SDS011;20721;47.402;8.550;2023-06-24T02:30:38;8.41;;;8.41;;
2710;SDS011;20721;47.402;8.550;2023-06-24T02:31:37;8.06;;;8.06;;
2710;SDS011;20721;47.402;8.550;2023-06-24T02:32:37;7.87;;;7.87;;
2710;SDS011;20721;47.402;8.550;2023-06-24T02:33:37;8.15;;;8.15;;
2710;SDS011;20721;47.402;8.550;2023-06-24T02:34:38;8.32;;;8.32;;
2710;SDS011;20721;47.402;8.550;2023-06-24T02:35:37;8.07;;;8.07;;
2710;SDS011;20721;47.402;8.550;2023-06-24T02:39:37;8.57;;;8.57;;
2710;SDS011;20721;47.402;8.550;2023-06-24T02:40:37;7.90;;;7.90;;
2710;SDS011;20721;47.402;8.550;2023-06-24T02:41:37;7.84;;;7.84;;
2710;SDS011;20721;47.402;8.550;2023-06-24T02:42:37;8.51;;;8.51;;
2710;SDS011;20721;47.402;8.550;2023-06-24T02:44:38;9.18;;;9.18;;
2710;SDS011;20721;47.402;8.550;2023-06-24T02:45:38;8.51;;;8.51;;
2710;SDS011;20721;47.402;8.550;2023-06-24T02:48:40;7.84;;;7.84;;
2710;SDS011;20721;47.402;8.550;2023-06-24T02:49:37;8.62;;;8.62;;
2710;SDS011;20721;47.402;8.550;2023-06-24T02:50:38;8.48;;;8.48;;
2710;SDS011;20721;47.402;8.550;2023-06-24T02:51:38;8.69;;;8.69;;
2710;SDS011;20721;47.402;8.550;2023-06-24T02:55:38;8.58;;;8.58;;
2710;SDS011;20721;47.402;8.550;2023-06-24T02:56:38;7.66;;;7.66;;
2710;SDS011;20721;47.402;8.550;2023-06-24T02:57:38;9.21;;;9.21;;
2710;SDS011;20721;47.402;8.550;2023-06-24T02:58:41;8.62;;;8.62;;
2710;SDS011;20721;47.402;8.550;2023-06-24T02:59:37;9.14;;;9.14;;
2710;SDS011;20721;47.402;8.550;2023-06-24T03:00:37;8.75;;;8.75;;
2710;SDS011;20721;47.402;8.550;2023-06-24T03:01:38;8.50;;;8.50;;
2710;SDS011;20721;47.402;8.550;2023-06-24T03:02:38;8.05;;;8.05;;
2710;SDS011;20721;47.402;8.550;2023-06-24T03:03:38;8.20;;;8.20;;
2710;SDS011;20721;47.402;8.550;2023-06-24T03:04:38;8.73;;;8.73;;
2710;SDS011;20721;47.402;8.550;2023-06-24T03:05:38;8.59;;;8.59;;
2710;SDS011;20721;47.402;8.550;2023-06-24T03:06:38;8.50;;;8.50;;
2710;SDS011;20721;47.402;8.550;2023-06-24T03:07:37;9.10;;;9.10;;
2710;SDS011;20721;47.402;8.550;2023-06-24T03:08:38;9.37;;;9.37;;
2710;SDS011;20721;47.402;8.550;2023-06-24T03:09:37;8.42;;;8.42;;
2710;SDS011;20721;47.402;8.550;2023-06-24T03:10:37;8.35;;;8.35;;
2710;SDS011;20721;47.402;8.550;2023-06-24T03:11:40;9.53;;;9.52;;
2710;SDS011;20721;47.402;8.550;2023-06-24T03:12:37;8.93;;;8.93;;
2710;SDS011;20721;47.402;8.550;2023-06-24T03:13:37;8.34;;;8.34;;
2710;SDS011;20721;47.402;8.550;2023-06-24T03:14:37;9.01;;;8.88;;
2710;SDS011;20721;47.402;8.550;2023-06-24T03:15:38;8.73;;;8.73;;
2710;SDS011;20721;47.402;8.550;2023-06-24T03:16:38;7.26;;;7.26;;
2710;SDS011;20721;47.402;8.550;2023-06-24T03:17:38;8.73;;;8.63;;
2710;SDS011;20721;47.402;8.550;2023-06-24T03:19:37;8.49;;;8.49;;
2710;SDS011;20721;47.402;8.550;2023-06-24T03:20:37;8.91;;;8.91;;
2710;SDS011;20721;47.402;8.550;2023-06-24T03:21:38;8.66;;;8.66;;
2710;SDS011;20721;47.402;8.550;2023-06-24T03:23:37;9.28;;;9.28;;
2710;SDS011;20721;47.402;8.550;2023-06-24T03:24:37;8.45;;;8.45;;
2710;SDS011;20721;47.402;8.550;2023-06-24T03:27:37;8.13;;;8.13;;
2710;SDS011;20721;47.402;8.550;2023-06-24T03:28:37;7.57;;;7.57;;
2710;SDS011;20721;47.402;8.550;2023-06-24T03:29:38;8.66;;;8.66;;
2710;SDS011;20721;47.402;8.550;2023-06-24T03:30:37;8.38;;;8.38;;
2710;SDS011;20721;47.402;8.550;2023-06-24T03:31:37;8.96;;;8.96;;
2710;SDS011;20721;47.402;8.550;2023-06-24T03:32:37;8.55;;;8.55;;
2710;SDS011;20721;47.402;8.550;2023-06-24T03:33:37;8.35;;;8.35;;
2710;SDS011;20721;47.402;8.550;2023-06-24T03:34:37;8.11;;;8.11;;
2710;SDS011;20721;47.402;8.550;2023-06-24T03:35:37;9.50;;;9.50;;
2710;SDS011;20721;47.402;8.550;2023-06-24T03:36:37;8.60;;;8.60;;
2710;SDS011;20721;47.402;8.550;2023-06-24T03:37:37;8.39;;;8.39;;
2710;SDS011;20721;47.402;8.550;2023-06-24T03:38:38;8.00;;;8.00;;
2710;SDS011;20721;47.402;8.550;2023-06-24T03:39:37;8.55;;;8.55;;
2710;SDS011;20721;47.402;8.550;2023-06-24T03:40:37;8.87;;;8.87;;
2710;SDS011;20721;47.402;8.550;2023-06-24T03:42:39;8.74;;;8.74;;
2710;SDS011;20721;47.402;8.550;2023-06-24T03:44:37;8.02;;;8.02;;
2710;SDS011;20721;47.402;8.550;2023-06-24T03:45:37;8.61;;;8.61;;
2710;SDS011;20721;47.402;8.550;2023-06-24T03:47:37;8.71;;;8.71;;
2710;SDS011;20721;47.402;8.550;2023-06-24T03:48:37;8.98;;;8.98;;
2710;SDS011;20721;47.402;8.550;2023-06-24T03:49:37;8.07;;;8.07;;
2710;SDS011;20721;47.402;8.550;2023-06-24T03:50:37;8.49;;;8.49;;
2710;SDS011;20721;47.402;8.550;2023-06-24T03:51:37;7.97;;;7.97;;
2710;SDS011;20721;47.402;8.550;2023-06-24T03:53:37;7.42;;;7.42;;
2710;SDS011;20721;47.402;8.550;2023-06-24T03:54:37;7.77;;;7.77;;
2710;SDS011;20721;47.402;8.550;2023-06-24T03:55:37;8.43;;;8.43;;
2710;SDS011;20721;47.402;8.550;2023-06-24T03:56:37;8.16;;;8.16;;
2710;SDS011;20721;47.402;8.550;2023-06-24T03:57:37;7.50;;;7.50;;
2710;SDS011;20721;47.402;8.550;2023-06-24T03:59:37;8.61;;;8.60;;
2710;SDS011;20721;47.402;8.550;2023-06-24T04:00:37;8.30;;;8.30;;
2710;SDS011;20721;47.402;8.550;2023-06-24T04:01:41;7.65;;;7.65;;
2710;SDS011;20721;47.402;8.550;2023-06-24T04:02:39;8.54;;;8.49;;
2710;SDS011;20721;47.402;8.550;2023-06-24T04:03:38;8.74;;;8.74;;
2710;SDS011;20721;47.402;8.550;2023-06-24T04:04:37;8.39;;;8.39;;
2710;SDS011;20721;47.402;8.550;2023-06-24T04:05:37;8.03;;;8.03;;
2710;SDS011;20721;47.402;8.550;2023-06-24T04:06:37;8.54;;;8.54;;
2710;SDS011;20721;47.402;8.550;2023-06-24T04:07:37;8.02;;;8.02;;
2710;SDS011;20721;47.402;8.550;2023-06-24T04:09:39;7.88;;;7.88;;
2710;SDS011;20721;47.402;8.550;2023-06-24T04:10:37;7.93;;;7.93;;
2710;SDS011;20721;47.402;8.550;2023-06-24T04:12:38;8.84;;;8.84;;
2710;SDS011;20721;47.402;8.550;2023-06-24T04:13:37;8.41;;;8.34;;
2710;SDS011;20721;47.402;8.550;2023-06-24T04:16:37;8.36;;;8.36;;
2710;SDS011;20721;47.402;8.550;2023-06-24T04:17:38;8.29;;;8.29;;
2710;SDS011;20721;47.402;8.550;2023-06-24T04:20:37;8.52;;;8.52;;
2710;SDS011;20721;47.402;8.550;2023-06-24T04:21:37;8.84;;;8.84;;
2710;SDS011;20721;47.402;8.550;2023-06-24T04:22:39;8.37;;;8.37;;
2710;SDS011;20721;47.402;8.550;2023-06-24T04:23:37;8.05;;;8.05;;
2710;SDS011;20721;47.402;8.550;2023-06-24T04:24:37;9.07;;;9.07;;
2710;SDS011;20721;47.402;8.550;2023-06-24T04:25:37;8.70;;;8.70;;
2710;SDS011;20721;47.402;8.550;2023-06-24T04:26:37;7.97;;;7.97;;
2710;SDS011;20721;47.402;8.550;2023-06-24T04:27:37;9.25;;;9.25;;
2710;SDS011;20721;47.402;8.550;2023-06-24T04:28:37;8.93;;;8.93;;
2710;SDS011;20721;47.402;8.550;2023-06-24T04:29:37;8.36;;;8.36;;
2710;SDS011;20721;47.402;8.550;2023-06-24T04:30:37;9.06;;;9.06;;
2710;SDS011;20721;47.402;8.550;2023-06-24T04:31:38;8.91;;;8.91;;
2710;SDS011;20721;47.402;8.550;2023-06-24T04:32:37;9.38;;;9.38;;
2710;SDS011;20721;47.402;8.550;2023-06-24T04:33:38;8.51;;;8.51;;
2710;SDS011;20721;47.402;8.550;2023-06-24T04:34:37;7.93;;;7.93;;
2710;SDS011;20721;47.402;8.550;2023-06-24T04:35:38;8.16;;;8.16;;
2710;SDS011;20721;47.402;8.550;2023-06-24T04:36:37;7.77;;;7.77;;
2710;SDS011;20721;47.402;8.550;2023-06-24T04:37:37;8.42;;;8.42;;
2710;SDS011;20721;47.402;8.550;2023-06-24T04:40:38;8.98;;;8.87;;
2710;SDS011;20721;47.402;8.550;2023-06-24T04:41:37;8.70;;;8.70;;
2710;SDS011;20721;47.402;8.550;2023-06-24T04:42:37;9.29;;;9.29;;
2710;SDS011;20721;47.402;8.550;2023-06-24T04:43:39;8.86;;;8.86;;
2710;SDS011;20721;47.402;8.550;2023-06-24T04:44:37;8.55;;;8.55;;
2710;SDS011;20721;47.402;8.550;2023-06-24T04:45:37;9.21;;;9.21;;
2710;SDS011;20721;47.402;8.550;2023-06-24T04:46:38;8.37;;;8.37;;
2710;SDS011;20721;47.402;8.550;2023-06-24T04:47:38;9.28;;;9.28;;
2710;SDS011;20721;47.402;8.550;2023-06-24T04:48:37;9.52;;;9.52;;
2710;SDS011;20721;47.402;8.550;2023-06-24T04:49:38;7.77;;;7.77;;
2710;SDS011;20721;47.402;8.550;2023-06-24T04:50:37;9.09;;;9.09;;
2710;SDS011;20721;47.402;8.550;2023-06-24T04:51:38;8.45;;;8.45;;
2710;SDS011;20721;47.402;8.550;2023-06-24T04:52:38;8.79;;;8.79;;
2710;SDS011;20721;47.402;8.550;2023-06-24T04:53:38;9.18;;;9.18;;
2710;SDS011;20721;47.402;8.550;2023-06-24T04:54:38;8.94;;;8.94;;
2710;SDS011;20721;47.402;8.550;2023-06-24T04:55:40;8.67;;;8.67;;
2710;SDS011;20721;47.402;8.550;2023-06-24T04:57:40;8.86;;;8.86;;
2710;SDS011;20721;47.402;8.550;2023-06-24T04:58:38;9.01;;;9.01;;
2710;SDS011;20721;47.402;8.550;2023-06-24T04:59:38;9.00;;;9.00;;
2710;SDS011;20721;47.402;8.550;2023-06-24T05:00:38;8.91;;;8.91;;
2710;SDS011;20721;47.402;8.550;2023-06-24T05:01:38;8.56;;;8.56;;
2710;SDS011;20721;47.402;8.550;2023-06-24T05:02:38;8.23;;;8.23;;
2710;SDS011;20721;47.402;8.550;2023-06-24T05:05:38;8.98;;;8.86;;
2710;SDS011;20721;47.402;8.550;2023-06-24T05:06:38;8.38;;;8.37;;
2710;SDS011;20721;47.402;8.550;2023-06-24T05:07:38;9.59;;;9.59;;
2710;SDS011;20721;47.402;8.550;2023-06-24T05:08:38;8.47;;;8.47;;
2710;SDS011;20721;47.402;8.550;2023-06-24T05:09:38;9.61;;;9.61;;
2710;SDS011;20721;47.402;8.550;2023-06-24T05:10:38;8.92;;;8.92;;
2710;SDS011;20721;47.402;8.550;2023-06-24T05:11:38;9.45;;;9.45;;
2710;SDS011;20721;47.402;8.550;2023-06-24T05:12:39;9.34;;;9.34;;
2710;SDS011;20721;47.402;8.550;2023-06-24T05:13:38;9.81;;;9.81;;
2710;SDS011;20721;47.402;8.550;2023-06-24T05:14:38;9.85;;;9.85;;
2710;SDS011;20721;47.402;8.550;2023-06-24T05:15:38;8.71;;;8.71;;
2710;SDS011;20721;47.402;8.550;2023-06-24T05:16:38;8.51;;;8.51;;
2710;SDS011;20721;47.402;8.550;2023-06-24T05:18:38;9.30;;;9.30;;
2710;SDS011;20721;47.402;8.550;2023-06-24T05:19:38;8.27;;;8.27;;
2710;SDS011;20721;47.402;8.550;2023-06-24T05:20:38;9.00;;;9.00;;
2710;SDS011;20721;47.402;8.550;2023-06-24T05:21:38;9.14;;;9.14;;
2710;SDS011;20721;47.402;8.550;2023-06-24T05:22:38;9.38;;;9.38;;
2710;SDS011;20721;47.402;8.550;2023-06-24T05:23:38;9.55;;;9.55;;
2710;SDS011;20721;47.402;8.550;2023-06-24T05:24:38;8.65;;;8.65;;
2710;SDS011;20721;47.402;8.550;2023-06-24T05:25:38;9.28;;;9.28;;
2710;SDS011;20721;47.402;8.550;2023-06-24T05:26:38;8.89;;;8.86;;
2710;SDS011;20721;47.402;8.550;2023-06-24T05:27:38;9.87;;;9.87;;
2710;SDS011;20721;47.402;8.550;2023-06-24T05:29:38;8.98;;;8.98;;
2710;SDS011;20721;47.402;8.550;2023-06-24T05:30:38;9.12;;;9.12;;
2710;SDS011;20721;47.402;8.550;2023-06-24T05:32:38;8.94;;;8.94;;
2710;SDS011;20721;47.402;8.550;2023-06-24T05:33:38;9.25;;;9.25;;
2710;SDS011;20721;47.402;8.550;2023-06-24T05:34:38;8.96;;;8.96;;
2710;SDS011;20721;47.402;8.550;2023-06-24T05:35:38;8.84;;;8.84;;
2710;SDS011;20721;47.402;8.550;2023-06-24T05:36:38;10.13;;;10.07;;
2710;SDS011;20721;47.402;8.550;2023-06-24T05:37:38;8.20;;;8.20;;
2710;SDS011;20721;47.402;8.550;2023-06-24T05:40:38;8.59;;;8.38;;
2710;SDS011;20721;47.402;8.550;2023-06-24T05:42:38;8.21;;;8.21;;
2710;SDS011;20721;47.402;8.550;2023-06-24T05:43:38;8.42;;;8.42;;
2710;SDS011;20721;47.402;8.550;2023-06-24T05:44:38;9.08;;;9.08;;
2710;SDS011;20721;47.402;8.550;2023-06-24T05:45:38;8.84;;;8.82;;
2710;SDS011;20721;47.402;8.550;2023-06-24T05:46:38;8.50;;;8.50;;
2710;SDS011;20721;47.402;8.550;2023-06-24T05:47:38;7.87;;;7.87;;
2710;SDS011;20721;47.402;8.550;2023-06-24T05:48:38;8.60;;;8.60;;
2710;SDS011;20721;47.402;8.550;2023-06-24T05:49:38;8.97;;;8.97;;
2710;SDS011;20721;47.402;8.550;2023-06-24T05:50:38;8.21;;;8.21;;
2710;SDS011;20721;47.402;8.550;2023-06-24T05:51:38;8.38;;;8.38;;
2710;SDS011;20721;47.402;8.550;2023-06-24T05:52:39;8.62;;;8.62;;
2710;SDS011;20721;47.402;8.550;2023-06-24T05:53:38;8.28;;;8.28;;
2710;SDS011;20721;47.402;8.550;2023-06-24T05:55:38;7.91;;;7.91;;
2710;SDS011;20721;47.402;8.550;2023-06-24T05:56:38;8.37;;;8.37;;
2710;SDS011;20721;47.402;8.550;2023-06-24T05:57:38;7.86;;;7.86;;
2710;SDS011;20721;47.402;8.550;2023-06-24T05:58:38;8.62;;;8.62;;
2710;SDS011;20721;47.402;8.550;2023-06-24T05:59:38;8.36;;;8.36;;
2710;SDS011;20721;47.402;8.550;2023-06-24T06:00:38;7.68;;;7.68;;
2710;SDS011;20721;47.402;8.550;2023-06-24T06:01:38;8.50;;;8.50;;
2710;SDS011;20721;47.402;8.550;2023-06-24T06:02:38;7.07;;;7.07;;
2710;SDS011;20721;47.402;8.550;2023-06-24T06:03:38;7.43;;;7.43;;
2710;SDS011;20721;47.402;8.550;2023-06-24T06:04:38;8.09;;;8.09;;
2710;SDS011;20721;47.402;8.550;2023-06-24T06:05:38;8.48;;;8.32;;
2710;SDS011;20721;47.402;8.550;2023-06-24T06:06:38;7.62;;;7.60;;
2710;SDS011;20721;47.402;8.550;2023-06-24T06:07:38;8.12;;;8.12;;
2710;SDS011;20721;47.402;8.550;2023-06-24T06:08:38;7.10;;;7.08;;
2710;SDS011;20721;47.402;8.550;2023-06-24T06:09:38;8.23;;;8.11;;
2710;SDS011;20721;47.402;8.550;2023-06-24T06:10:38;7.82;;;7.82;;
2710;SDS011;20721;47.402;8.550;2023-06-24T06:11:38;8.21;;;8.21;;
2710;SDS011;20721;47.402;8.550;2023-06-24T06:12:38;7.84;;;7.84;;
2710;SDS011;20721;47.402;8.550;2023-06-24T06:13:38;7.87;;;7.87;;
2710;SDS011;20721;47.402;8.550;2023-06-24T06:14:38;6.72;;;6.72;;
2710;SDS011;20721;47.402;8.550;2023-06-24T06:15:38;7.33;;;7.33;;
2710;SDS011;20721;47.402;8.550;2023-06-24T06:16:38;8.19;;;8.18;;
2710;SDS011;20721;47.402;8.550;2023-06-24T06:17:38;8.29;;;8.19;;
2710;SDS011;20721;47.402;8.550;2023-06-24T06:18:38;8.29;;;8.29;;
2710;SDS011;20721;47.402;8.550;2023-06-24T06:19:38;7.05;;;7.05;;
2710;SDS011;20721;47.402;8.550;2023-06-24T06:20:38;7.77;;;7.66;;
2710;SDS011;20721;47.402;8.550;2023-06-24T06:21:38;7.95;;;7.88;;
2710;SDS011;20721;47.402;8.550;2023-06-24T06:22:38;8.44;;;8.44;;
2710;SDS011;20721;47.402;8.550;2023-06-24T06:23:38;7.44;;;7.44;;
2710;SDS011;20721;47.402;8.550;2023-06-24T06:24:38;7.01;;;7.01;;
2710;SDS011;20721;47.402;8.550;2023-06-24T06:25:38;7.07;;;7.07;;
2710;SDS011;20721;47.402;8.550;2023-06-24T06:26:41;6.90;;;6.90;;
2710;SDS011;20721;47.402;8.550;2023-06-24T06:27:38;7.51;;;7.51;;
2710;SDS011;20721;47.402;8.550;2023-06-24T06:28:38;7.64;;;7.64;;
2710;SDS011;20721;47.402;8.550;2023-06-24T06:29:38;7.66;;;7.66;;
2710;SDS011;20721;47.402;8.550;2023-06-24T06:30:38;8.19;;;8.19;;
2710;SDS011;20721;47.402;8.550;2023-06-24T06:32:41;7.27;;;7.27;;
2710;SDS011;20721;47.402;8.550;2023-06-24T06:33:38;6.74;;;6.74;;
2710;SDS011;20721;47.402;8.550;2023-06-24T06:34:38;7.27;;;7.27;;
2710;SDS011;20721;47.402;8.550;2023-06-24T06:35:38;7.19;;;7.19;;
2710;SDS011;20721;47.402;8.550;2023-06-24T06:36:38;6.72;;;6.72;;
2710;SDS011;20721;47.402;8.550;2023-06-24T06:37:38;7.77;;;7.77;;
2710;SDS011;20721;47.402;8.550;2023-06-24T06:38:38;7.42;;;7.42;;
2710;SDS011;20721;47.402;8.550;2023-06-24T06:39:38;7.41;;;7.38;;
2710;SDS011;20721;47.402;8.550;2023-06-24T06:40:38;7.67;;;7.59;;
2710;SDS011;20721;47.402;8.550;2023-06-24T06:42:39;7.25;;;7.03;;
2710;SDS011;20721;47.402;8.550;2023-06-24T06:43:38;7.24;;;7.20;;
2710;SDS011;20721;47.402;8.550;2023-06-24T06:44:38;7.56;;;7.52;;
2710;SDS011;20721;47.402;8.550;2023-06-24T06:45:40;7.60;;;7.60;;
2710;SDS011;20721;47.402;8.550;2023-06-24T06:46:38;7.66;;;7.66;;
2710;SDS011;20721;47.402;8.550;2023-06-24T06:47:38;7.95;;;7.95;;
2710;SDS011;20721;47.402;8.550;2023-06-24T06:48:38;7.58;;;7.58;;
2710;SDS011;20721;47.402;8.550;2023-06-24T06:49:38;7.10;;;7.10;;
2710;SDS011;20721;47.402;8.550;2023-06-24T06:50:38;6.57;;;6.57;;
2710;SDS011;20721;47.402;8.550;2023-06-24T06:51:38;7.28;;;7.28;;
2710;SDS011;20721;47.402;8.550;2023-06-24T06:52:38;7.18;;;7.18;;
2710;SDS011;20721;47.402;8.550;2023-06-24T06:53:38;6.46;;;6.46;;
2710;SDS011;20721;47.402;8.550;2023-06-24T06:54:38;6.52;;;6.52;;
2710;SDS011;20721;47.402;8.550;2023-06-24T06:55:38;7.27;;;7.08;;
2710;SDS011;20721;47.402;8.550;2023-06-24T06:56:38;7.76;;;7.61;;
2710;SDS011;20721;47.402;8.550;2023-06-24T06:57:39;8.05;;;7.87;;
2710;SDS011;20721;47.402;8.550;2023-06-24T06:58:38;7.82;;;7.78;;
2710;SDS011;20721;47.402;8.550;2023-06-24T06:59:38;7.32;;;7.32;;
2710;SDS011;20721;47.402;8.550;2023-06-24T07:00:38;7.40;;;7.32;;
2710;SDS011;20721;47.402;8.550;2023-06-24T07:01:38;7.17;;;7.17;;
2710;SDS011;20721;47.402;8.550;2023-06-24T07:02:38;7.34;;;7.24;;
2710;SDS011;20721;47.402;8.550;2023-06-24T07:03:39;7.79;;;7.77;;
2710;SDS011;20721;47.402;8.550;2023-06-24T07:04:38;6.84;;;6.84;;
2710;SDS011;20721;47.402;8.550;2023-06-24T07:05:38;6.63;;;6.63;;
2710;SDS011;20721;47.402;8.550;2023-06-24T07:06:38;6.69;;;6.69;;
2710;SDS011;20721;47.402;8.550;2023-06-24T07:07:38;6.56;;;6.56;;
2710;SDS011;20721;47.402;8.550;2023-06-24T07:08:38;7.52;;;7.52;;
2710;SDS011;20721;47.402;8.550;2023-06-24T07:09:38;7.91;;;7.91;;
2710;SDS011;20721;47.402;8.550;2023-06-24T07:10:38;6.35;;;6.35;;
2710;SDS011;20721;47.402;8.550;2023-06-24T07:11:38;6.42;;;6.42;;
2710;SDS011;20721;47.402;8.550;2023-06-24T07:12:39;7.14;;;7.14;;
2710;SDS011;20721;47.402;8.550;2023-06-24T07:13:38;7.63;;;7.63;;
2710;SDS011;20721;47.402;8.550;2023-06-24T07:14:38;7.05;;;7.05;;
2710;SDS011;20721;47.402;8.550;2023-06-24T07:15:38;7.54;;;7.54;;
2710;SDS011;20721;47.402;8.550;2023-06-24T07:16:38;6.90;;;6.90;;
2710;SDS011;20721;47.402;8.550;2023-06-24T07:17:39;7.39;;;7.39;;
2710;SDS011;20721;47.402;8.550;2023-06-24T07:18:40;7.11;;;7.11;;
2710;SDS011;20721;47.402;8.550;2023-06-24T07:19:38;6.39;;;6.39;;
2710;SDS011;20721;47.402;8.550;2023-06-24T07:20:38;7.38;;;7.38;;
2710;SDS011;20721;47.402;8.550;2023-06-24T07:21:38;6.83;;;6.83;;
2710;SDS011;20721;47.402;8.550;2023-06-24T07:22:40;7.33;;;7.33;;
2710;SDS011;20721;47.402;8.550;2023-06-24T07:23:38;6.73;;;6.73;;